createdAt,value
2018-02-17T00:01:25.094Z,18.00
2018-02-17T00:03:52.660Z,15.07
2018-02-17T00:06:21.806Z,16.10
2018-02-17T00:08:50.104Z,19.85
2018-02-17T00:11:17.768Z,50.65
2018-02-17T00:13:45.284Z,30.92
2018-02-17T00:16:12.820Z,18.35
2018-02-17T00:18:40.362Z,18.73
2018-02-17T00:21:07.914Z,18.17
2018-02-17T00:23:35.508Z,17.83
2018-02-17T00:26:03.047Z,21.87
2018-02-17T00:28:30.572Z,16.90
2018-02-17T00:30:58.935Z,18.70
2018-02-17T00:33:26.447Z,16.23
2018-02-17T00:35:54.108Z,16.83
2018-02-17T00:38:21.616Z,15.82
2018-02-17T00:40:49.193Z,18.37
2018-02-17T00:43:17.497Z,19.70
2018-02-17T00:45:45.078Z,14.80
2018-02-17T00:48:12.669Z,18.87
2018-02-17T00:50:40.234Z,23.40
2018-02-17T00:53:07.771Z,18.52
2018-02-17T00:55:35.322Z,19.05
2018-02-17T00:58:02.866Z,19.02
2018-02-17T01:00:30.454Z,16.17
2018-02-17T01:02:58.092Z,22.42
2018-02-17T01:05:25.782Z,21.83
2018-02-17T01:07:53.299Z,23.20
2018-02-17T01:10:20.880Z,22.45
2018-02-17T01:12:48.383Z,20.12
2018-02-17T01:15:15.989Z,22.90
2018-02-17T01:17:43.540Z,30.12
2018-02-17T01:20:11.089Z,32.88
2018-02-17T01:22:39.390Z,29.30
2018-02-17T01:25:06.946Z,23.62
2018-02-17T01:27:34.515Z,24.70
2018-02-17T01:30:02.067Z,18.62
2018-02-17T01:32:29.609Z,22.00
2018-02-17T01:34:57.920Z,27.27
2018-02-17T01:37:25.462Z,21.10
2018-02-17T01:39:53.031Z,18.58
2018-02-17T01:42:20.555Z,18.60
2018-02-17T01:44:48.865Z,24.42
2018-02-17T01:47:16.419Z,21.08
2018-02-17T01:49:44.068Z,24.15
2018-02-17T01:52:12.340Z,23.00
2018-02-17T01:54:40.656Z,19.35
2018-02-17T01:57:08.171Z,18.87
2018-02-17T01:59:36.478Z,19.55
2018-02-17T02:02:04.044Z,22.05
2018-02-17T02:04:31.582Z,25.77
2018-02-17T02:06:59.096Z,18.80
2018-02-17T02:09:26.828Z,25.15
2018-02-17T02:11:54.340Z,23.08
2018-02-17T02:14:22.649Z,25.65
2018-02-17T02:16:50.164Z,27.30
2018-02-17T02:19:17.760Z,22.13
2018-02-17T02:21:45.296Z,21.42
2018-02-17T02:24:12.841Z,26.08
2018-02-17T02:26:40.454Z,19.02
2018-02-17T02:29:07.990Z,19.02
2018-02-17T02:31:36.276Z,19.25
2018-02-17T02:34:04.566Z,18.25
2018-02-17T02:36:32.081Z,20.33
2018-02-17T02:38:59.692Z,18.95
2018-02-17T02:41:27.276Z,16.92
2018-02-17T02:43:54.798Z,17.37
2018-02-17T02:46:22.384Z,26.42
2018-02-17T02:48:49.892Z,20.95
2018-02-17T02:51:18.213Z,25.88
2018-02-17T02:53:45.724Z,20.70
2018-02-17T02:56:13.321Z,16.85
2018-02-17T02:58:40.866Z,16.00
2018-02-17T03:01:08.412Z,26.40
2018-02-17T03:03:36.708Z,23.70
2018-02-17T03:06:04.252Z,23.08
2018-02-17T03:08:32.553Z,23.38
2018-02-17T03:11:00.112Z,17.25
2018-02-17T03:13:27.627Z,17.15
2018-02-17T03:15:55.952Z,15.27
2018-02-17T03:18:23.496Z,17.98
2018-02-17T03:20:51.068Z,29.55
2018-02-17T03:23:18.565Z,18.98
2018-02-17T03:25:46.142Z,17.90
2018-02-17T03:28:14.445Z,19.10
2018-02-17T03:30:42.836Z,18.10
2018-02-17T03:33:10.351Z,19.15
2018-02-17T03:35:37.889Z,19.27
2018-02-17T03:38:05.394Z,18.87
2018-02-17T03:40:33.719Z,22.65
2018-02-17T03:43:01.228Z,21.83
2018-02-17T03:45:29.739Z,21.73
2018-02-17T03:47:57.260Z,19.20
2018-02-17T03:50:25.572Z,20.37
2018-02-17T03:52:53.087Z,20.42
2018-02-17T03:55:20.747Z,23.70
2018-02-17T03:57:48.355Z,21.27
2018-02-17T04:00:15.904Z,26.00
2018-02-17T04:02:43.433Z,26.52
2018-02-17T04:05:11.799Z,21.17
2018-02-17T04:07:39.308Z,22.45
2018-02-17T04:10:06.844Z,24.42
2018-02-17T04:12:34.422Z,22.23
2018-02-17T04:15:02.000Z,28.30
2018-02-17T04:17:29.539Z,30.65
2018-02-17T04:19:57.069Z,23.25
2018-02-17T04:22:25.346Z,19.17
2018-02-17T04:24:53.757Z,22.73
2018-02-17T04:27:21.292Z,25.35
2018-02-17T04:29:49.596Z,26.30
2018-02-17T04:32:17.112Z,29.50
2018-02-17T04:34:45.526Z,26.77
2018-02-17T04:37:13.036Z,23.83
2018-02-17T04:39:49.428Z,19.95
2018-02-17T04:42:31.418Z,20.40
2018-02-17T04:45:15.812Z,22.70
2018-02-17T04:47:48.965Z,16.80
2018-02-17T04:53:21.184Z,19.12
2018-02-17T04:55:51.356Z,17.85
2018-02-17T04:58:18.859Z,27.75
2018-02-17T05:00:56.310Z,20.35
2018-02-17T05:03:26.295Z,21.02
2018-02-17T05:06:11.475Z,18.48
2018-02-17T05:08:39.716Z,20.83
2018-02-17T05:11:08.355Z,27.90
2018-02-17T05:13:36.670Z,21.48
2018-02-17T05:16:12.029Z,18.45
2018-02-17T05:21:44.593Z,20.23
2018-02-17T05:24:18.211Z,16.55
2018-02-17T05:26:47.214Z,21.52
2018-02-17T05:29:26.250Z,19.67
2018-02-17T05:31:56.668Z,18.95
2018-02-17T05:34:40.996Z,23.02
2018-02-17T05:37:08.566Z,17.98
2018-02-17T05:39:37.504Z,19.67
2018-02-17T05:42:19.822Z,25.12
2018-02-17T05:47:49.985Z,15.40
2018-02-17T05:50:17.510Z,17.67
2018-02-17T05:52:45.111Z,18.25
2018-02-17T05:55:12.671Z,19.98
2018-02-17T05:57:40.208Z,17.62
2018-02-17T06:00:08.560Z,13.27
2018-02-17T06:02:36.178Z,26.55
2018-02-17T06:05:03.724Z,17.05
2018-02-17T06:07:31.235Z,19.15
2018-02-17T06:09:58.912Z,16.05
2018-02-17T06:12:26.415Z,22.55
2018-02-17T06:14:53.949Z,15.48
2018-02-17T06:17:22.223Z,17.65
2018-02-17T06:19:50.629Z,23.20
2018-02-17T06:22:18.170Z,23.10
2018-02-17T06:24:45.714Z,19.50
2018-02-17T06:27:14.003Z,17.98
2018-02-17T06:29:41.583Z,25.92
2018-02-17T06:32:09.116Z,19.27
2018-02-17T06:34:37.420Z,18.08
2018-02-17T06:37:04.931Z,17.48
2018-02-17T06:39:32.500Z,22.50
2018-02-17T06:42:00.816Z,20.55
2018-02-17T06:44:28.404Z,18.02
2018-02-17T06:46:55.977Z,17.00
2018-02-17T06:49:23.508Z,21.80
2018-02-17T06:51:51.020Z,17.55
2018-02-17T06:54:19.339Z,15.48
2018-02-17T06:56:46.845Z,10.73
2018-02-17T06:59:15.150Z,15.90
2018-02-17T07:01:42.687Z,16.02
2018-02-17T07:04:11.199Z,21.05
2018-02-17T07:06:38.710Z,15.63
2018-02-17T07:09:06.302Z,15.68
2018-02-17T07:11:33.816Z,12.37
2018-02-17T07:14:01.507Z,11.70
2018-02-17T07:16:29.778Z,17.60
2018-02-17T07:18:57.355Z,16.42
2018-02-17T07:21:25.686Z,14.32
2018-02-17T07:23:53.213Z,15.35
2018-02-17T07:26:20.851Z,16.20
2018-02-17T07:28:49.135Z,17.90
2018-02-17T07:31:16.648Z,25.75
2018-02-17T07:33:44.163Z,18.52
2018-02-17T07:36:11.691Z,12.30
2018-02-17T07:38:39.977Z,10.25
2018-02-17T07:41:08.370Z,21.85
2018-02-17T07:43:35.898Z,17.80
2018-02-17T07:46:03.499Z,14.87
2018-02-17T07:48:31.073Z,12.37
2018-02-17T07:50:58.712Z,12.80
2018-02-17T07:53:26.215Z,19.55
2018-02-17T07:55:53.764Z,16.15
2018-02-17T07:58:21.292Z,16.75
2018-02-17T08:00:48.958Z,16.80
2018-02-17T08:03:16.479Z,18.25
2018-02-17T08:05:44.789Z,10.98
2018-02-17T08:08:12.309Z,22.02
2018-02-17T08:10:39.871Z,16.12
2018-02-17T08:13:07.388Z,12.40
2018-02-17T08:15:34.927Z,17.67
2018-02-17T08:18:02.475Z,14.70
2018-02-17T08:20:30.119Z,20.17
2018-02-17T08:22:58.407Z,18.23
2018-02-17T08:25:25.971Z,16.70
2018-02-17T08:27:53.512Z,22.62
2018-02-17T08:30:21.808Z,18.17
2018-02-17T08:32:49.342Z,15.88
2018-02-17T08:35:17.688Z,14.43
2018-02-17T08:37:45.219Z,22.05
2018-02-17T08:40:12.747Z,18.73
2018-02-17T08:42:41.186Z,23.05
2018-02-17T08:45:08.714Z,19.35
2018-02-17T08:47:36.314Z,17.00
2018-02-17T08:50:03.837Z,19.45
2018-02-17T08:52:31.369Z,23.95
2018-02-17T08:54:59.681Z,18.30
2018-02-17T08:57:27.723Z,16.85
2018-02-17T08:59:55.303Z,19.08
2018-02-17T09:02:22.842Z,18.62
2018-02-17T09:04:50.414Z,25.83
2018-02-17T09:07:17.949Z,23.52
2018-02-17T09:09:46.314Z,17.48
2018-02-17T09:12:13.849Z,14.45
2018-02-17T09:14:41.351Z,15.95
2018-02-17T09:17:09.661Z,20.60
2018-02-17T09:19:37.736Z,18.25
2018-02-17T09:22:05.264Z,22.90
2018-02-17T09:24:32.827Z,19.37
2018-02-17T09:27:00.397Z,17.40
2018-02-17T09:29:27.901Z,12.75
2018-02-17T09:31:55.479Z,17.55
2018-02-17T09:34:23.045Z,18.25
2018-02-17T09:36:51.463Z,17.17
2018-02-17T09:39:18.995Z,41.05
2018-02-17T09:41:46.559Z,20.40
2018-02-17T09:44:14.136Z,21.25
2018-02-17T09:46:41.675Z,19.30
2018-02-17T09:49:09.224Z,17.10
2018-02-17T09:51:37.571Z,16.98
2018-02-17T09:54:05.115Z,11.10
2018-02-17T09:56:32.759Z,16.62
2018-02-17T09:59:00.309Z,16.05
2018-02-17T10:01:27.850Z,20.83
2018-02-17T10:03:55.365Z,18.85
2018-02-17T10:06:24.882Z,24.92
2018-02-17T10:08:52.432Z,15.43
2018-02-17T10:11:20.026Z,19.40
2018-02-17T10:13:47.639Z,17.40
2018-02-17T10:16:15.229Z,12.93
2018-02-17T10:18:43.555Z,15.25
2018-02-17T10:21:11.341Z,16.35
2018-02-17T10:23:38.852Z,17.25
2018-02-17T10:26:07.159Z,15.43
2018-02-17T10:28:34.676Z,21.55
2018-02-17T10:31:02.263Z,21.67
2018-02-17T10:33:30.582Z,19.90
2018-02-17T10:35:58.149Z,22.67
2018-02-17T10:38:25.777Z,14.32
2018-02-17T10:40:53.312Z,18.80
2018-02-17T10:43:20.840Z,14.05
2018-02-17T10:45:48.446Z,18.45
2018-02-17T10:48:15.963Z,16.95
2018-02-17T10:50:44.301Z,18.75
2018-02-17T10:53:11.836Z,13.40
2018-02-17T10:55:39.351Z,15.75
2018-02-17T10:58:06.884Z,13.07
2018-02-17T11:00:35.336Z,14.60
2018-02-17T11:03:02.873Z,19.40
2018-02-17T11:05:30.462Z,15.75
2018-02-17T11:07:58.818Z,16.35
2018-02-17T11:10:26.480Z,13.73
2018-02-17T11:12:54.043Z,17.52
2018-02-17T11:15:21.599Z,12.02
2018-02-17T11:17:49.178Z,14.87
2018-02-17T11:20:16.718Z,16.10
2018-02-17T11:22:44.890Z,17.25
2018-02-17T11:25:12.440Z,20.27
2018-02-17T11:27:40.715Z,14.23
2018-02-17T11:30:09.028Z,13.52
2018-02-17T11:32:36.555Z,15.05
2018-02-17T11:35:04.898Z,16.37
2018-02-17T11:37:32.400Z,11.68
2018-02-17T11:39:59.947Z,20.17
2018-02-17T11:42:28.255Z,14.98
2018-02-17T11:44:55.887Z,16.27
2018-02-17T11:47:23.412Z,16.37
2018-02-17T11:49:51.002Z,15.60
2018-02-17T11:52:18.692Z,15.32
2018-02-17T11:54:46.250Z,18.80
2018-02-17T11:57:13.787Z,17.02
2018-02-17T11:59:42.108Z,16.30
2018-02-17T12:02:10.168Z,14.10
2018-02-17T12:04:37.731Z,18.77
2018-02-17T12:07:05.243Z,16.52
2018-02-17T12:09:33.787Z,16.98
2018-02-17T12:12:01.339Z,20.45
2018-02-17T12:14:28.882Z,17.25
2018-02-17T12:16:56.455Z,18.73
2018-02-17T12:19:23.981Z,19.55
2018-02-17T12:21:51.548Z,15.30
2018-02-17T12:24:19.121Z,21.50
2018-02-17T12:26:46.654Z,22.23
2018-02-17T12:29:14.180Z,18.70
2018-02-17T12:31:51.744Z,13.50
2018-02-17T12:34:19.369Z,14.43
2018-02-17T12:36:46.884Z,17.92
2018-02-17T12:39:15.241Z,19.58
2018-02-17T12:41:42.890Z,20.12
2018-02-17T12:44:10.422Z,13.95
2018-02-17T12:46:38.825Z,16.10
2018-02-17T12:49:06.405Z,20.00
2018-02-17T12:51:33.988Z,17.00
2018-02-17T12:54:01.505Z,18.50
2018-02-17T12:56:29.051Z,15.00
2018-02-17T12:58:56.661Z,14.98
2018-02-17T13:01:24.229Z,16.20
2018-02-17T13:03:51.847Z,13.62
2018-02-17T13:06:19.385Z,12.07
2018-02-17T13:08:47.053Z,13.52
2018-02-17T13:11:14.616Z,15.35
2018-02-17T13:13:42.227Z,15.75
2018-02-17T13:16:09.718Z,15.40
2018-02-17T13:18:38.047Z,21.33
2018-02-17T13:21:05.589Z,15.93
2018-02-17T13:23:33.133Z,11.73
2018-02-17T13:26:00.720Z,14.80
2018-02-17T13:28:28.272Z,14.02
2018-02-17T13:30:56.659Z,18.35
2018-02-17T13:33:24.199Z,15.57
2018-02-17T13:35:51.886Z,11.45
2018-02-17T13:38:19.420Z,20.62
2018-02-17T13:40:47.069Z,17.87
2018-02-17T13:43:14.598Z,11.40
2018-02-17T13:45:42.923Z,16.95
2018-02-17T13:48:10.459Z,12.20
2018-02-17T13:50:38.086Z,15.50
2018-02-17T13:53:05.616Z,16.10
2018-02-17T13:55:33.176Z,17.48
2018-02-17T13:58:00.800Z,16.35
2018-02-17T14:00:28.381Z,13.30
2018-02-17T14:02:55.924Z,16.45
2018-02-17T14:05:23.495Z,15.20
2018-02-17T14:07:51.175Z,16.45
2018-02-17T14:10:20.678Z,15.40
2018-02-17T14:12:48.192Z,14.80
2018-02-17T14:15:26.439Z,19.80
2018-02-17T14:17:53.976Z,23.67
2018-02-17T14:20:21.512Z,13.35
2018-02-17T14:22:49.783Z,17.00
2018-02-17T14:25:18.160Z,14.77
2018-02-17T14:27:56.474Z,16.15
2018-02-17T14:30:24.799Z,17.37
2018-02-17T14:32:52.389Z,14.73
2018-02-17T14:35:20.699Z,15.00
2018-02-17T14:37:49.044Z,15.80
2018-02-17T14:40:16.823Z,17.52
2018-02-17T14:42:44.441Z,13.80
2018-02-17T14:45:11.992Z,13.52
2018-02-17T14:47:39.628Z,20.02
2018-02-17T14:50:07.171Z,16.45
2018-02-17T14:52:34.809Z,14.20
2018-02-17T14:55:03.563Z,11.30
2018-02-17T14:57:31.197Z,9.65
2018-02-17T14:59:59.702Z,13.80
2018-02-17T15:02:27.338Z,11.48
2018-02-17T15:04:56.424Z,13.10
2018-02-17T15:07:24.007Z,13.43
2018-02-17T15:09:51.772Z,13.68
2018-02-17T15:12:29.937Z,13.52
2018-02-17T15:14:57.611Z,14.80
2018-02-17T15:17:25.934Z,12.63
2018-02-17T15:19:53.783Z,14.43
2018-02-17T15:22:21.330Z,13.23
2018-02-17T15:24:49.784Z,13.62
2018-02-17T15:27:17.376Z,13.05
2018-02-17T15:29:45.791Z,15.32
2018-02-17T15:32:24.163Z,12.20
2018-02-17T15:34:52.575Z,16.58
2018-02-17T15:37:30.987Z,13.77
2018-02-17T15:39:58.684Z,15.70
2018-02-17T15:42:26.319Z,18.05
2018-02-17T15:44:53.885Z,16.80
2018-02-17T15:47:21.536Z,13.52
2018-02-17T15:49:49.158Z,12.85
2018-02-17T15:52:17.520Z,13.45
2018-02-17T15:54:45.073Z,16.58
2018-02-17T15:57:12.585Z,12.15
2018-02-17T15:59:40.148Z,14.90
2018-02-17T16:02:07.822Z,15.65
2018-02-17T16:04:35.425Z,17.98
2018-02-17T16:07:03.312Z,14.43
2018-02-17T16:09:42.939Z,18.27
2018-02-17T16:12:10.649Z,15.98
2018-02-17T16:14:38.244Z,14.43
2018-02-17T16:17:05.755Z,14.30
2018-02-17T16:19:33.304Z,17.87
2018-02-17T16:22:00.851Z,19.95
2018-02-17T16:24:29.781Z,16.30
2018-02-17T16:26:57.468Z,15.15
2018-02-17T16:29:25.051Z,12.50
2018-02-17T16:31:53.472Z,13.57
2018-02-17T16:34:21.744Z,17.17
2018-02-17T16:36:49.255Z,17.95
2018-02-17T16:39:16.837Z,15.40
2018-02-17T16:41:45.151Z,21.12
2018-02-17T16:44:12.760Z,12.27
2018-02-17T16:46:41.068Z,16.52
2018-02-17T16:49:09.605Z,17.67
2018-02-17T16:51:37.222Z,15.65
2018-02-17T16:54:04.842Z,14.68
2018-02-17T16:56:32.395Z,22.33
2018-02-17T16:59:01.046Z,16.87
2018-02-17T17:01:28.801Z,16.30
2018-02-17T17:03:57.420Z,17.30
2018-02-17T17:06:24.934Z,14.00
2018-02-17T17:08:52.595Z,18.48
2018-02-17T17:11:20.169Z,17.23
2018-02-17T17:13:47.824Z,12.25
2018-02-17T17:16:15.532Z,17.90
2018-02-17T17:18:43.092Z,37.33
2018-02-17T17:21:10.872Z,13.85
2018-02-17T17:23:39.191Z,15.52
2018-02-17T17:26:06.737Z,18.55
2018-02-17T17:28:34.388Z,16.85
2018-02-17T17:31:02.674Z,22.20
2018-02-17T17:33:30.376Z,19.40
2018-02-17T17:35:57.899Z,25.10
2018-02-17T17:38:25.443Z,21.60
2018-02-17T17:40:53.000Z,17.27
2018-02-17T17:43:20.560Z,18.87
2018-02-17T17:45:48.124Z,23.05
2018-02-17T17:48:15.740Z,20.67
2018-02-17T17:50:43.257Z,48.65
2018-02-17T17:53:20.758Z,19.75
2018-02-17T17:55:48.666Z,22.40
2018-02-17T17:58:16.234Z,16.67
2018-02-17T18:00:44.584Z,23.75
2018-02-17T18:03:12.139Z,25.80
2018-02-17T18:05:39.678Z,24.17
2018-02-17T18:08:07.252Z,17.77
2018-02-17T18:10:34.840Z,18.15
2018-02-17T18:13:03.174Z,14.70
2018-02-17T18:15:30.755Z,19.45
2018-02-17T18:17:58.391Z,15.63
2018-02-17T18:20:27.222Z,22.75
2018-02-17T18:22:54.968Z,883.67
2018-02-17T18:25:22.579Z,1999.90
2018-02-17T18:27:51.385Z,909.85
2018-02-17T18:30:18.969Z,126.12
2018-02-17T18:32:46.510Z,25.88
2018-02-17T18:35:14.066Z,41.58
2018-02-17T18:37:42.175Z,22.60
2018-02-17T18:40:09.733Z,56.60
2018-02-17T18:42:37.276Z,20.20
2018-02-17T18:45:04.809Z,23.05
2018-02-17T18:47:32.377Z,19.95
2018-02-17T18:50:00.720Z,22.52
2018-02-17T18:52:29.067Z,21.95
2018-02-17T18:54:56.620Z,20.77
2018-02-17T18:57:24.201Z,19.83
2018-02-17T18:59:51.794Z,18.55
2018-02-17T19:02:20.196Z,20.55
2018-02-17T19:04:50.087Z,18.67
2018-02-17T19:07:17.568Z,17.65
2018-02-17T19:09:45.096Z,17.77
2018-02-17T19:12:13.403Z,18.65
2018-02-17T19:14:41.081Z,19.00
2018-02-17T19:17:09.816Z,17.87
2018-02-17T19:19:38.159Z,19.50
2018-02-17T19:22:05.862Z,18.00
2018-02-17T19:24:34.188Z,18.58
2018-02-17T19:27:01.817Z,17.98
2018-02-17T19:29:29.331Z,23.67
2018-02-17T19:31:56.898Z,22.77
2018-02-17T19:34:24.425Z,22.23
2018-02-17T19:36:52.040Z,21.20
2018-02-17T19:39:20.397Z,21.83
2018-02-17T19:41:48.029Z,18.50
2018-02-17T19:44:15.580Z,18.02
2018-02-17T19:46:44.640Z,21.60
2018-02-17T19:49:12.222Z,22.45
2018-02-17T19:51:39.780Z,13.70
2018-02-17T19:54:07.308Z,17.23
2018-02-17T19:56:35.861Z,17.35
2018-02-17T19:59:03.391Z,16.17
2018-02-17T20:01:30.928Z,15.40
2018-02-17T20:03:58.608Z,20.92
2018-02-17T20:06:26.163Z,23.80
2018-02-17T20:08:53.699Z,297.55
2018-02-17T20:11:21.264Z,123.03
2018-02-17T20:13:48.803Z,28.95
2018-02-17T20:16:16.345Z,20.95
2018-02-17T20:18:43.874Z,18.15
2018-02-17T20:21:11.521Z,19.15
2018-02-17T20:23:39.228Z,15.95
2018-02-17T20:26:06.840Z,21.45
2018-02-17T20:28:34.447Z,24.95
2018-02-17T20:31:02.037Z,18.40
2018-02-17T20:33:30.494Z,21.70
2018-02-17T20:35:58.042Z,17.12
2018-02-17T20:38:25.662Z,16.62
2018-02-17T20:40:53.228Z,19.83
2018-02-17T20:43:21.051Z,18.17
2018-02-17T20:45:49.517Z,16.37
2018-02-17T20:48:17.822Z,23.05
2018-02-17T20:50:46.220Z,18.77
2018-02-17T20:53:14.079Z,24.40
2018-02-17T20:55:41.716Z,26.05
2018-02-17T20:58:10.880Z,20.20
2018-02-17T21:00:48.375Z,35.92
2018-02-17T21:03:15.944Z,21.85
2018-02-17T21:05:44.187Z,24.20
2018-02-17T21:08:11.787Z,23.48
2018-02-17T21:10:40.014Z,30.40
2018-02-17T21:13:07.692Z,28.17
2018-02-17T21:15:35.347Z,25.23
2018-02-17T21:18:02.895Z,21.42
2018-02-17T21:20:30.451Z,18.25
2018-02-17T21:22:57.988Z,21.20
2018-02-17T21:25:26.296Z,25.60
2018-02-17T21:27:53.815Z,24.65
2018-02-17T21:30:22.203Z,29.92
2018-02-17T21:32:50.478Z,20.95
2018-02-17T21:35:18.924Z,21.30
2018-02-17T21:37:46.464Z,22.67
2018-02-17T21:40:14.020Z,26.33
2018-02-17T21:42:41.535Z,26.67
2018-02-17T21:45:09.664Z,18.40
2018-02-17T21:47:37.277Z,21.00
2018-02-17T21:50:04.872Z,27.65
2018-02-17T21:52:32.431Z,21.77
2018-02-17T21:55:01.224Z,28.60
2018-02-17T21:57:28.812Z,24.40
2018-02-17T21:59:56.345Z,19.33
2018-02-17T22:02:23.990Z,22.17
2018-02-17T22:04:51.588Z,26.15
2018-02-17T22:07:19.295Z,28.92
2018-02-17T22:09:47.191Z,23.38
2018-02-17T22:12:14.789Z,26.92
2018-02-17T22:14:42.348Z,27.27
2018-02-17T22:17:09.924Z,25.25
2018-02-17T22:19:38.307Z,32.30
2018-02-17T22:22:05.899Z,28.65
2018-02-17T22:24:33.452Z,23.73
2018-02-17T22:27:01.636Z,28.38
2018-02-17T22:29:30.025Z,26.92
2018-02-17T22:31:57.782Z,33.75
2018-02-17T22:34:25.370Z,33.05
2018-02-17T22:36:52.904Z,34.10
2018-02-17T22:39:20.463Z,25.60
2018-02-17T22:41:48.060Z,23.17
2018-02-17T22:44:15.750Z,25.90
2018-02-17T22:46:43.297Z,26.37
2018-02-17T22:49:11.571Z,26.12
2018-02-17T22:51:39.891Z,32.05
2018-02-17T22:54:07.445Z,31.50
2018-02-17T22:56:35.202Z,33.35
2018-02-17T22:59:02.738Z,26.67
2018-02-17T23:01:31.296Z,26.40
2018-02-17T23:03:58.926Z,28.60
2018-02-17T23:06:26.469Z,25.92
2018-02-17T23:08:54.037Z,24.80
2018-02-17T23:11:21.564Z,24.98
2018-02-17T23:13:49.142Z,28.75
2018-02-17T23:16:16.791Z,26.05
2018-02-17T23:18:45.984Z,30.75
2018-02-17T23:21:13.543Z,29.83
2018-02-17T23:23:41.092Z,37.17
2018-02-17T23:26:09.400Z,38.50
2018-02-17T23:28:36.908Z,37.90
2018-02-17T23:31:04.507Z,25.00
2018-02-17T23:33:32.079Z,31.62
2018-02-17T23:35:59.636Z,36.10
2018-02-17T23:38:27.142Z,30.50
2018-02-17T23:40:54.744Z,34.10
2018-02-17T23:43:23.209Z,31.65
2018-02-17T23:45:51.609Z,35.08
2018-02-17T23:48:19.120Z,32.20
2018-02-17T23:50:46.659Z,23.90
2018-02-17T23:53:14.286Z,34.15
2018-02-17T23:55:41.820Z,29.15
2018-02-17T23:58:10.254Z,25.00
